ADDS METAR Data INFO
IDs: Format: Raw Decoded Include TAF

Data at: 0221 UTC 18 Jan 2018

KJCA 180215Z AUTO 32010KT 10SM CLR M06/M12 A3036 RMK AO2
KJCA 180155Z AUTO 32012G17KT 10SM CLR M05/M13 A3036 RMK AO2
KJCA 180135Z AUTO 32008G18KT 10SM CLR M05/M13 A3036 RMK AO2
KJCA 180115Z AUTO 32011KT 10SM CLR M05/M13 A3035 RMK AO2
KJCA 180055Z AUTO 32012KT 10SM CLR M05/M13 A3034 RMK AO2
KJCA 180035Z AUTO 32013G19KT 10SM CLR M05/M13 A3034 RMK AO2
KJCA 180015Z AUTO 31011KT 10SM CLR M04/M13 A3034 RMK AO2
KJCA 172355Z AUTO 31015G21KT 10SM CLR M04/M13 A3033 RMK AO2
KJCA 172335Z AUTO 32014G18KT 10SM CLR M03/M13 A3031 RMK AO2
KJCA 172315Z AUTO 31013G20KT 10SM CLR M03/M13 A3030 RMK AO2
KJCA 172255Z AUTO 31015G19KT 10SM CLR M02/M13 A3029 RMK AO2
KJCA 172235Z AUTO 31012G16KT 10SM CLR M01/M14 A3028 RMK AO2
KJCA 172215Z AUTO 33012G19KT 300V010 10SM CLR M01/M12 A3028 RMK AO2
KJCA 172155Z AUTO 32014G19KT 10SM CLR M01/M12 A3027 RMK AO2
KJCA 172135Z AUTO 31015KT 10SM CLR 00/M11 A3026 RMK AO2
KJCA 172115Z AUTO 30011KT 10SM CLR 00/M10 A3026 RMK AO2
KJCA 172055Z AUTO 30012G16KT 10SM CLR 00/M10 A3025 RMK AO2
KJCA 172035Z AUTO 31013G18KT 10SM CLR 00/M09 A3025 RMK AO2
KJCA 172015Z AUTO 30012KT 10SM SCT035 00/M08 A3025 RMK AO2
KJCA 171955Z AUTO 30012KT 10SM SCT033 00/M09 A3024 RMK AO2
KJCA 171935Z AUTO 28011G17KT 10SM CLR 00/M08 A3024 RMK AO2
KJCA 171915Z AUTO 29015KT 10SM CLR M01/M09 A3024 RMK AO2
KJCA 171855Z AUTO 27012G17KT 10SM CLR M01/M08 A3025 RMK AO2
KJCA 171835Z AUTO 28011G16KT 10SM CLR M02/M08 A3026 RMK AO2
KJCA 171815Z AUTO 27012G17KT 10SM CLR M02/M08 A3026 RMK AO2
KJCA 171755Z AUTO 28010G19KT 10SM CLR M02/M08 A3028 RMK AO2
KJCA 171735Z AUTO 28012G18KT 10SM CLR M03/M08 A3029 RMK AO2
KJCA 171715Z AUTO 29015G19KT 10SM CLR M03/M09 A3030 RMK AO2
KJCA 171655Z AUTO 28012G18KT 10SM CLR M04/M09 A3030 RMK AO2
KJCA 171635Z AUTO 28010G19KT 10SM CLR M04/M10 A3031 RMK AO2
KJCA 171615Z AUTO 28011G19KT 10SM CLR M05/M10 A3031 RMK AO2
KJCA 171555Z AUTO 28010G15KT 10SM CLR M05/M09 A3031 RMK AO2
KJCA 171535Z AUTO 28009G15KT 10SM CLR M05/M09 A3030 RMK AO2
KJCA 171515Z AUTO 29010G17KT 10SM CLR M05/M09 A3029 RMK AO2
KJCA 171455Z AUTO 27008KT 10SM CLR M06/M09 A3029 RMK AO2
KJCA 171435Z AUTO 28010G14KT 10SM CLR M06/M09 A3029 RMK AO2
KJCA 171415Z AUTO 28008KT 10SM SCT100 M06/M09 A3029 RMK AO2
KJCA 171355Z AUTO 28007KT 10SM SCT075 OVC100 M06/M08 A3029 RMK AO2
KJCA 171335Z AUTO 28010G14KT 10SM BKN075 OVC090 M06/M08 A3028 RMK AO2
KJCA 171315Z AUTO 28011KT 10SM OVC075 M06/M08 A3027 RMK AO2
KJCA 171255Z AUTO 27009KT 10SM SCT017 SCT028 OVC075 M06/M07 A3028 RMK AO2
KJCA 171235Z AUTO 28010KT 4SM -SN SCT012 BKN017 OVC048 M06/M07 A3028 RMK AO2
KJCA 171215Z AUTO 29008KT 2 1/2SM -SN BKN018 OVC028 M05/M06 A3028 RMK AO2
KJCA 171155Z AUTO 29010KT 4SM -SN SCT011 BKN020 OVC035 M05/M06 A3028 RMK AO2
KJCA 171135Z AUTO 29007KT 2 1/2SM -SN BKN012 OVC020 M05/M06 A3027 RMK AO2
KJCA 171115Z AUTO 29007KT 4SM -SN SCT022 BKN034 OVC070 M04/M05 A3027 RMK AO2
KJCA 171055Z AUTO 28007KT 5SM -SN SCT014 BKN024 OVC070 M04/M05 A3028 RMK AO2
KJCA 171035Z AUTO 28008KT 3SM -SN BKN015 BKN026 OVC045 M04/M05 A3029 RMK AO2
KJCA 171015Z AUTO 29009KT 7SM -SN SCT030 BKN047 OVC065 M03/M05 A3029 RMK AO2
KJCA 170955Z AUTO 29010KT 7SM -SN SCT013 BKN024 OVC035 M03/M04 A3029 RMK AO2
KJCA 170935Z AUTO 29008KT 3SM -SN SCT007 BKN013 OVC038 M03/M03 A3029 RMK AO2
KJCA 170915Z AUTO 28010G14KT 7SM -SN SCT009 BKN035 OVC049 M02/M03 A3029 RMK AO2
KJCA 170855Z AUTO 29006KT 3SM -SN SCT006 BKN012 OVC016 M02/M03 A3029 RMK AO2
KJCA 170835Z AUTO 28007KT 2SM -SN BKN009 OVC012 M02/M02 A3028 RMK AO2
KJCA 170815Z AUTO 28005KT 2SM -SN OVC011 M02/M02 A3028 RMK AO2
KJCA 170755Z AUTO 28006KT 1 3/4SM -SN OVC009 M02/M02 A3029 RMK AO2
KJCA 170735Z AUTO 28008KT 3SM -SN SCT017 BKN025 OVC050 M01/M02 A3029 RMK AO2
KJCA 170715Z AUTO 30010G16KT 10SM -SN OVC050 M01/M02 A3029 RMK AO2
KJCA 170655Z AUTO 28009KT 5SM -SN SCT044 OVC050 00/M02 A3029 RMK AO2
KJCA 170635Z AUTO 28009KT 10SM OVC050 00/M02 A3029 RMK AO2
KJCA 170615Z AUTO 29008KT 10SM -SN OVC050 00/M02 A3029 RMK AO2
KJCA 170555Z AUTO 29008KT 10SM OVC050 00/M01 A3030 RMK AO2
KJCA 170535Z AUTO 29007KT 10SM OVC055 00/M01 A3030 RMK AO2
KJCA 170515Z AUTO 28008KT 10SM OVC055 01/M01 A3031 RMK AO2
KJCA 170455Z AUTO 26008KT 10SM OVC065 01/M01 A3031 RMK AO2
KJCA 170435Z AUTO 28006KT 10SM BKN037 BKN050 OVC065 01/M01 A3031 RMK AO2
KJCA 170415Z AUTO 29007KT 10SM OVC035 01/00 A3033 RMK AO2
KJCA 170355Z AUTO 28005KT 10SM OVC031 02/00 A3033 RMK AO2
KJCA 170335Z AUTO 29006KT 10SM BKN033 OVC065 02/00 A3033 RMK AO2
KJCA 170315Z AUTO 28006KT 10SM SCT036 SCT041 OVC065 03/00 A3033 RMK AO2
KJCA 170255Z AUTO 27006KT 10SM SCT041 SCT048 OVC065 03/00 A3033 RMK AO2
KJCA 170235Z AUTO 29005KT 10SM SCT050 OVC065 03/01 A3033 RMK AO2
KJCA 170215Z AUTO 30009KT 10SM OVC065 03/01 A3033 RMK AO2
KJCA 170155Z AUTO 29005G08KT 10SM OVC065 04/01 A3033 RMK AO2
KJCA 170135Z AUTO 31011KT 10SM OVC065 05/01 A3032 RMK AO2
KJCA 170115Z AUTO 32010KT 10SM BKN065 OVC075 05/01 A3031 RMK AO2
KJCA 170055Z AUTO 30008KT 10SM OVC065 06/01 A3030 RMK AO2
KJCA 170035Z AUTO 31007KT 10SM OVC065 07/00 A3030 RMK AO2
KJCA 170015Z AUTO 29009KT 10SM OVC065 07/00 A3030 RMK AO2
KJCA 162355Z AUTO 25003KT 10SM SCT050 OVC065 08/00 A3029 RMK AO2
KJCA 162335Z AUTO 25003KT 10SM BKN048 OVC065 08/00 A3030 RMK AO2
KJCA 162315Z AUTO 00000KT 10SM BKN046 OVC070 08/00 A3030 RMK AO2
KJCA 162255Z AUTO 25003KT 10SM SCT046 BKN065 OVC080 08/00 A3030 RMK AO2
KJCA 162235Z AUTO 23003KT 10SM BKN044 BKN065 OVC080 08/00 A3030 RMK AO2
KJCA 162215Z AUTO 00000KT 10SM OVC044 09/00 A3030 RMK AO2
KJCA 162155Z AUTO 25003KT 10SM OVC046 09/M01 A3030 RMK AO2
KJCA 162135Z AUTO 24004KT 10SM OVC050 09/M01 A3030 RMK AO2
KJCA 162115Z AUTO 25006KT 10SM BKN050 OVC110 09/M01 A3031 RMK AO2
KJCA 162055Z AUTO 25006KT 10SM SCT050 OVC120 10/M01 A3031 RMK AO2
KJCA 162035Z AUTO 24006KT 10SM BKN050 10/M01 A3032 RMK AO2
KJCA 162015Z AUTO 29007KT 10SM SCT050 SCT110 10/M01 A3032 RMK AO2
KJCA 161950Z AUTO 27007KT 10SM CLR 10/M01 A3033 RMK AO2
KJCA 161935Z AUTO 24005KT 10SM SCT048 10/M01 A3033 RMK AO2
KJCA 161915Z AUTO 24006KT 10SM SCT048 10/M01 A3034 RMK AO2
KJCA 161855Z AUTO 27004KT 10SM CLR 09/M01 A3034 RMK AO2
KJCA 161835Z AUTO 24004KT 10SM CLR 08/M02 A3035 RMK AO2
KJCA 161815Z AUTO 23006KT 10SM CLR 08/M02 A3036 RMK AO2
KJCA 161755Z AUTO 18004KT 10SM CLR 08/M02 A3036 RMK AO2
KJCA 161735Z AUTO 27005KT 10SM CLR 08/M02 A3038 RMK AO2
KJCA 161715Z AUTO 22005KT 10SM CLR 08/M02 A3038 RMK AO2
KJCA 161655Z AUTO 25005KT 10SM CLR 06/M03 A3041 RMK AO2
KJCA 161635Z AUTO 27004KT 10SM CLR 06/M03 A3041 RMK AO2
KJCA 161615Z AUTO 23004KT 10SM CLR 05/M03 A3043 RMK AO2
KJCA 161555Z AUTO 00000KT 10SM CLR 05/M04 A3043 RMK AO2
KJCA 161535Z AUTO 00000KT 10SM CLR 03/M04 A3043 RMK AO2
KJCA 161515Z AUTO 00000KT 10SM CLR 02/M05 A3044 RMK AO2
KJCA 161455Z AUTO 00000KT 10SM CLR 01/M03 A3044 RMK AO2
KJCA 161435Z AUTO 00000KT 10SM CLR 00/M03 A3044 RMK AO2